sensor_id;sensor_type;location;lat;lon;timestamp;pressure;altitude;pressure_sealevel;temperature;humidity
54588;BME280;40484;50.198;19.576;2023-04-28T00:00:37;102126.20;;;10.58;42.72
54588;BME280;40484;50.198;19.576;2023-04-28T00:08:44;102129.38;;;10.60;42.53
54588;BME280;40484;50.198;19.576;2023-04-28T00:13:45;102118.09;;;10.57;42.43
54588;BME280;40484;50.198;19.576;2023-04-28T00:18:47;102117.05;;;10.57;42.41
54588;BME280;40484;50.198;19.576;2023-04-28T00:23:48;102114.98;;;10.58;42.56
54588;BME280;40484;50.198;19.576;2023-04-28T00:28:50;102108.20;;;10.52;42.54
54588;BME280;40484;50.198;19.576;2023-04-28T00:33:51;102115.34;;;10.45;42.58
54588;BME280;40484;50.198;19.576;2023-04-28T00:38:53;102115.67;;;10.51;42.79
54588;BME280;40484;50.198;19.576;2023-04-28T00:43:54;102109.47;;;10.63;42.83
54588;BME280;40484;50.198;19.576;2023-04-28T00:48:57;102110.60;;;10.56;42.85
54588;BME280;40484;50.198;19.576;2023-04-28T00:53:58;102121.98;;;10.55;42.83
54588;BME280;40484;50.198;19.576;2023-04-28T00:59:00;102112.73;;;10.30;43.07
54588;BME280;40484;50.198;19.576;2023-04-28T01:04:01;102115.38;;;10.27;43.08
54588;BME280;40484;50.198;19.576;2023-04-28T01:09:03;102116.87;;;10.21;43.24
54588;BME280;40484;50.198;19.576;2023-04-28T01:14:06;102112.87;;;10.00;43.14
54588;BME280;40484;50.198;19.576;2023-04-28T01:19:11;102120.76;;;10.09;43.12
54588;BME280;40484;50.198;19.576;2023-04-28T01:24:11;102118.29;;;10.27;43.16
54588;BME280;40484;50.198;19.576;2023-04-28T01:29:13;102122.89;;;10.28;43.35
54588;BME280;40484;50.198;19.576;2023-04-28T01:34:14;102119.41;;;10.22;43.49
54588;BME280;40484;50.198;19.576;2023-04-28T01:39:15;102126.82;;;10.10;43.22
54588;BME280;40484;50.198;19.576;2023-04-28T01:44:17;102127.26;;;10.03;43.43
54588;BME280;40484;50.198;19.576;2023-04-28T01:49:19;102130.43;;;9.96;43.65
54588;BME280;40484;50.198;19.576;2023-04-28T01:54:45;102116.11;;;9.97;43.68
54588;BME280;40484;50.198;19.576;2023-04-28T01:59:46;102118.09;;;10.01;43.27
54588;BME280;40484;50.198;19.576;2023-04-28T02:04:47;102116.17;;;9.99;42.96
54588;BME280;40484;50.198;19.576;2023-04-28T02:09:49;102113.73;;;9.91;43.06
54588;BME280;40484;50.198;19.576;2023-04-28T02:14:50;102118.65;;;9.89;43.11
54588;BME280;40484;50.198;19.576;2023-04-28T02:19:55;102123.49;;;9.75;43.14
54588;BME280;40484;50.198;19.576;2023-04-28T02:24:57;102116.56;;;9.72;43.17
54588;BME280;40484;50.198;19.576;2023-04-28T02:29:59;102118.27;;;9.57;43.19
54588;BME280;40484;50.198;19.576;2023-04-28T02:35:00;102119.71;;;9.47;43.26
54588;BME280;40484;50.198;19.576;2023-04-28T02:40:02;102114.35;;;9.23;43.36
54588;BME280;40484;50.198;19.576;2023-04-28T02:45:04;102105.23;;;9.23;43.11
54588;BME280;40484;50.198;19.576;2023-04-28T02:50:07;102103.94;;;9.22;42.84
54588;BME280;40484;50.198;19.576;2023-04-28T02:55:08;102109.43;;;9.18;42.95
54588;BME280;40484;50.198;19.576;2023-04-28T03:00:10;102101.56;;;9.03;43.07
54588;BME280;40484;50.198;19.576;2023-04-28T03:05:12;102108.97;;;8.92;43.06
54588;BME280;40484;50.198;19.576;2023-04-28T03:10:13;102097.67;;;8.97;42.84
54588;BME280;40484;50.198;19.576;2023-04-28T03:15:15;102103.02;;;8.87;42.86
54588;BME280;40484;50.198;19.576;2023-04-28T03:20:17;102111.06;;;8.63;42.67
54588;BME280;40484;50.198;19.576;2023-04-28T03:25:18;102113.32;;;8.48;42.90
54588;BME280;40484;50.198;19.576;2023-04-28T03:30:20;102114.15;;;8.41;43.06
54588;BME280;40484;50.198;19.576;2023-04-28T03:35:21;102115.61;;;8.41;43.20
54588;BME280;40484;50.198;19.576;2023-04-28T03:40:48;102113.41;;;8.44;43.18
54588;BME280;40484;50.198;19.576;2023-04-28T03:45:50;102114.44;;;8.51;43.23
54588;BME280;40484;50.198;19.576;2023-04-28T03:50:51;102115.92;;;8.45;43.37
54588;BME280;40484;50.198;19.576;2023-04-28T03:55:53;102117.98;;;8.31;43.32
54588;BME280;40484;50.198;19.576;2023-04-28T04:00:55;102112.11;;;8.29;43.59
54588;BME280;40484;50.198;19.576;2023-04-28T04:05:56;102118.82;;;8.31;43.77
54588;BME280;40484;50.198;19.576;2023-04-28T04:10:58;102112.67;;;8.47;43.74
54588;BME280;40484;50.198;19.576;2023-04-28T04:16:00;102103.41;;;8.49;43.98
54588;BME280;40484;50.198;19.576;2023-04-28T04:21:01;102097.17;;;8.63;44.06
54588;BME280;40484;50.198;19.576;2023-04-28T04:26:03;102096.43;;;8.82;43.99
54588;BME280;40484;50.198;19.576;2023-04-28T04:31:05;102099.03;;;8.93;44.05
54588;BME280;40484;50.198;19.576;2023-04-28T04:36:08;102095.16;;;9.29;43.99
54588;BME280;40484;50.198;19.576;2023-04-28T04:41:09;102097.88;;;9.63;43.65
54588;BME280;40484;50.198;19.576;2023-04-28T04:46:11;102097.81;;;9.95;43.06
54588;BME280;40484;50.198;19.576;2023-04-28T04:51:13;102095.55;;;10.25;42.60
54588;BME280;40484;50.198;19.576;2023-04-28T04:56:15;102093.73;;;10.46;41.82
54588;BME280;40484;50.198;19.576;2023-04-28T05:01:16;102093.79;;;10.69;41.70
54588;BME280;40484;50.198;19.576;2023-04-28T05:06:18;102099.62;;;10.92;41.68
54588;BME280;40484;50.198;19.576;2023-04-28T05:11:19;102096.34;;;11.16;41.46
54588;BME280;40484;50.198;19.576;2023-04-28T05:16:21;102100.91;;;11.40;41.06
54588;BME280;40484;50.198;19.576;2023-04-28T05:21:22;102108.86;;;11.68;40.58
54588;BME280;40484;50.198;19.576;2023-04-28T05:26:24;102109.48;;;11.93;40.03
54588;BME280;40484;50.198;19.576;2023-04-28T05:31:50;102107.34;;;12.20;39.81
54588;BME280;40484;50.198;19.576;2023-04-28T05:36:52;102113.34;;;12.32;39.59
54588;BME280;40484;50.198;19.576;2023-04-28T05:41:53;102113.32;;;12.45;39.09
54588;BME280;40484;50.198;19.576;2023-04-28T05:46:55;102110.70;;;12.52;38.79
54588;BME280;40484;50.198;19.576;2023-04-28T05:51:56;102110.27;;;12.53;38.48
54588;BME280;40484;50.198;19.576;2023-04-28T05:56:58;102112.57;;;12.52;37.45
54588;BME280;40484;50.198;19.576;2023-04-28T06:01:59;102115.64;;;12.66;37.66
54588;BME280;40484;50.198;19.576;2023-04-28T06:07:01;102119.74;;;12.79;38.12
54588;BME280;40484;50.198;19.576;2023-04-28T06:12:02;102121.34;;;12.91;37.50
54588;BME280;40484;50.198;19.576;2023-04-28T06:17:04;102118.68;;;13.14;36.90
54588;BME280;40484;50.198;19.576;2023-04-28T06:22:06;102118.70;;;13.18;36.45
54588;BME280;40484;50.198;19.576;2023-04-28T06:27:07;102109.50;;;13.33;35.59
54588;BME280;40484;50.198;19.576;2023-04-28T06:32:09;102105.01;;;13.44;34.55
54588;BME280;40484;50.198;19.576;2023-04-28T06:37:11;102105.98;;;13.63;34.13
54588;BME280;40484;50.198;19.576;2023-04-28T06:42:12;102112.05;;;13.64;35.44
54588;BME280;40484;50.198;19.576;2023-04-28T06:47:14;102105.67;;;13.80;32.99
54588;BME280;40484;50.198;19.576;2023-04-28T06:52:16;102103.98;;;13.48;31.59
54588;BME280;40484;50.198;19.576;2023-04-28T06:57:18;102100.20;;;13.44;32.27
54588;BME280;40484;50.198;19.576;2023-04-28T07:02:21;102103.41;;;13.82;32.01
54588;BME280;40484;50.198;19.576;2023-04-28T07:07:22;102104.32;;;13.95;30.83
54588;BME280;40484;50.198;19.576;2023-04-28T07:12:23;102099.93;;;13.95;31.76
54588;BME280;40484;50.198;19.576;2023-04-28T07:17:25;102103.54;;;14.05;30.93
54588;BME280;40484;50.198;19.576;2023-04-28T07:22:51;102089.86;;;14.25;31.54
54588;BME280;40484;50.198;19.576;2023-04-28T07:27:52;102092.31;;;14.54;31.03
54588;BME280;40484;50.198;19.576;2023-04-28T07:32:54;102092.02;;;14.42;28.75
54588;BME280;40484;50.198;19.576;2023-04-28T07:37:56;102089.05;;;14.35;29.56
54588;BME280;40484;50.198;19.576;2023-04-28T07:42:58;102081.70;;;14.25;30.39
54588;BME280;40484;50.198;19.576;2023-04-28T07:47:59;102081.25;;;14.21;29.71
54588;BME280;40484;50.198;19.576;2023-04-28T07:53:02;102079.87;;;14.35;31.13
54588;BME280;40484;50.198;19.576;2023-04-28T07:58:04;102079.09;;;14.03;30.23
54588;BME280;40484;50.198;19.576;2023-04-28T08:03:05;102074.34;;;14.17;30.72
54588;BME280;40484;50.198;19.576;2023-04-28T08:08:07;102077.61;;;14.44;30.80
54588;BME280;40484;50.198;19.576;2023-04-28T08:13:08;102068.32;;;14.76;30.60
54588;BME280;40484;50.198;19.576;2023-04-28T08:18:10;102065.84;;;14.87;31.34
54588;BME280;40484;50.198;19.576;2023-04-28T08:23:11;102059.99;;;15.10;29.63
54588;BME280;40484;50.198;19.576;2023-04-28T08:28:13;102068.59;;;15.15;29.53
54588;BME280;40484;50.198;19.576;2023-04-28T08:33:14;102064.17;;;14.97;29.44
54588;BME280;40484;50.198;19.576;2023-04-28T08:38:16;102052.66;;;14.98;28.12
54588;BME280;40484;50.198;19.576;2023-04-28T08:43:18;102053.94;;;15.31;29.05
54588;BME280;40484;50.198;19.576;2023-04-28T08:48:21;102048.68;;;15.50;29.52
54588;BME280;40484;50.198;19.576;2023-04-28T08:53:24;102047.84;;;15.50;28.84
54588;BME280;40484;50.198;19.576;2023-04-28T08:58:26;102041.99;;;15.67;29.17
54588;BME280;40484;50.198;19.576;2023-04-28T09:03:28;102040.09;;;15.58;28.76
54588;BME280;40484;50.198;19.576;2023-04-28T09:08:55;102036.77;;;16.25;29.55
54588;BME280;40484;50.198;19.576;2023-04-28T09:14:10;102034.34;;;16.06;28.58
54588;BME280;40484;50.198;19.576;2023-04-28T09:19:00;102032.66;;;16.05;28.69
54588;BME280;40484;50.198;19.576;2023-04-28T09:24:02;102024.16;;;16.34;28.66
54588;BME280;40484;50.198;19.576;2023-04-28T09:29:12;102017.19;;;16.45;28.04
54588;BME280;40484;50.198;19.576;2023-04-28T09:34:14;102007.85;;;16.59;28.85
54588;BME280;40484;50.198;19.576;2023-04-28T09:39:27;102009.86;;;16.74;28.26
54588;BME280;40484;50.198;19.576;2023-04-28T09:44:19;102000.04;;;16.69;28.20
54588;BME280;40484;50.198;19.576;2023-04-28T09:49:21;102000.90;;;16.66;28.10
54588;BME280;40484;50.198;19.576;2023-04-28T09:54:24;101986.45;;;16.56;27.89
54588;BME280;40484;50.198;19.576;2023-04-28T09:59:27;101980.14;;;16.63;27.74
54588;BME280;40484;50.198;19.576;2023-04-28T10:04:29;101970.21;;;16.76;26.93
54588;BME280;40484;50.198;19.576;2023-04-28T10:09:32;101962.47;;;17.21;28.76
54588;BME280;40484;50.198;19.576;2023-04-28T10:14:35;101955.42;;;17.13;25.68
54588;BME280;40484;50.198;19.576;2023-04-28T10:19:38;101949.14;;;16.85;27.40
54588;BME280;40484;50.198;19.576;2023-04-28T10:24:57;101956.54;;;16.78;27.67
54588;BME280;40484;50.198;19.576;2023-04-28T10:30:23;101940.56;;;17.07;26.74
54588;BME280;40484;50.198;19.576;2023-04-28T10:40:33;101949.34;;;16.53;26.28
54588;BME280;40484;50.198;19.576;2023-04-28T10:56:14;101916.86;;;16.78;25.48
54588;BME280;40484;50.198;19.576;2023-04-28T11:06:26;101898.65;;;16.97;27.06
54588;BME280;40484;50.198;19.576;2023-04-28T11:11:30;101899.91;;;17.37;26.30
54588;BME280;40484;50.198;19.576;2023-04-28T11:16:33;101898.69;;;17.69;25.35
54588;BME280;40484;50.198;19.576;2023-04-28T11:21:36;101885.73;;;18.13;25.03
54588;BME280;40484;50.198;19.576;2023-04-28T11:27:03;101887.30;;;18.60;25.02
54588;BME280;40484;50.198;19.576;2023-04-28T11:32:09;101878.16;;;18.66;25.18
54588;BME280;40484;50.198;19.576;2023-04-28T11:37:08;101879.30;;;18.87;27.14
54588;BME280;40484;50.198;19.576;2023-04-28T11:42:10;101871.39;;;19.47;24.26
54588;BME280;40484;50.198;19.576;2023-04-28T11:47:12;101863.01;;;18.91;24.08
54588;BME280;40484;50.198;19.576;2023-04-28T11:52:14;101866.78;;;19.46;24.35
54588;BME280;40484;50.198;19.576;2023-04-28T11:57:17;101853.09;;;19.36;24.43
54588;BME280;40484;50.198;19.576;2023-04-28T12:02:26;101846.14;;;19.66;24.19
54588;BME280;40484;50.198;19.576;2023-04-28T12:07:29;101825.43;;;19.58;24.75
54588;BME280;40484;50.198;19.576;2023-04-28T12:12:31;101823.67;;;20.01;24.40
54588;BME280;40484;50.198;19.576;2023-04-28T12:17:38;101829.49;;;20.47;23.14
54588;BME280;40484;50.198;19.576;2023-04-28T12:22:47;101816.95;;;19.80;23.37
54588;BME280;40484;50.198;19.576;2023-04-28T12:28:06;101816.39;;;19.57;23.15
54588;BME280;40484;50.198;19.576;2023-04-28T12:33:27;101798.84;;;19.38;22.25
54588;BME280;40484;50.198;19.576;2023-04-28T12:38:50;101809.23;;;19.66;23.24
54588;BME280;40484;50.198;19.576;2023-04-28T12:43:52;101802.05;;;19.96;23.79
54588;BME280;40484;50.198;19.576;2023-04-28T12:48:53;101796.70;;;20.17;22.65
54588;BME280;40484;50.198;19.576;2023-04-28T12:53:55;101781.64;;;20.27;21.90
54588;BME280;40484;50.198;19.576;2023-04-28T12:58:56;101769.80;;;20.78;22.93
54588;BME280;40484;50.198;19.576;2023-04-28T13:03:58;101770.34;;;20.65;21.58
54588;BME280;40484;50.198;19.576;2023-04-28T13:08:59;101765.22;;;20.90;22.77
54588;BME280;40484;50.198;19.576;2023-04-28T13:14:01;101750.96;;;21.10;21.99
54588;BME280;40484;50.198;19.576;2023-04-28T13:19:03;101750.52;;;21.53;21.67
54588;BME280;40484;50.198;19.576;2023-04-28T13:24:07;101736.26;;;21.06;21.59
54588;BME280;40484;50.198;19.576;2023-04-28T13:29:09;101745.34;;;20.76;21.47
54588;BME280;40484;50.198;19.576;2023-04-28T13:34:11;101740.91;;;19.84;21.97
54588;BME280;40484;50.198;19.576;2023-04-28T13:39:14;101733.47;;;20.04;21.96
54588;BME280;40484;50.198;19.576;2023-04-28T13:44:16;101733.72;;;20.20;22.34
54588;BME280;40484;50.198;19.576;2023-04-28T13:49:17;101722.87;;;20.23;21.71
54588;BME280;40484;50.198;19.576;2023-04-28T13:54:20;101710.38;;;20.40;21.72
54588;BME280;40484;50.198;19.576;2023-04-28T13:59:21;101702.31;;;20.18;21.99
54588;BME280;40484;50.198;19.576;2023-04-28T14:04:23;101699.69;;;20.54;22.06
54588;BME280;40484;50.198;19.576;2023-04-28T14:09:24;101689.80;;;20.76;23.80
54588;BME280;40484;50.198;19.576;2023-04-28T14:14:26;101688.45;;;21.43;22.61
54588;BME280;40484;50.198;19.576;2023-04-28T14:19:27;101674.08;;;21.75;23.36
54588;BME280;40484;50.198;19.576;2023-04-28T14:24:54;101670.72;;;22.37;22.50
54588;BME280;40484;50.198;19.576;2023-04-28T14:29:56;101665.85;;;22.72;22.64
54588;BME280;40484;50.198;19.576;2023-04-28T14:34:57;101674.52;;;22.90;21.48
54588;BME280;40484;50.198;19.576;2023-04-28T14:39:59;101677.05;;;22.96;20.94
54588;BME280;40484;50.198;19.576;2023-04-28T14:45:08;101669.80;;;22.97;20.93
54588;BME280;40484;50.198;19.576;2023-04-28T14:50:10;101661.13;;;22.07;19.66
54588;BME280;40484;50.198;19.576;2023-04-28T14:55:12;101656.99;;;21.79;20.77
54588;BME280;40484;50.198;19.576;2023-04-28T15:00:14;101656.17;;;21.53;20.63
54588;BME280;40484;50.198;19.576;2023-04-28T15:05:16;101652.27;;;21.69;21.95
54588;BME280;40484;50.198;19.576;2023-04-28T15:10:18;101645.99;;;21.93;21.27
54588;BME280;40484;50.198;19.576;2023-04-28T15:15:19;101655.99;;;22.16;21.84
54588;BME280;40484;50.198;19.576;2023-04-28T15:20:20;101653.03;;;22.16;22.54
54588;BME280;40484;50.198;19.576;2023-04-28T15:25:22;101652.80;;;21.91;22.31
54588;BME280;40484;50.198;19.576;2023-04-28T15:30:24;101642.39;;;22.36;21.76
54588;BME280;40484;50.198;19.576;2023-04-28T15:35:25;101644.96;;;22.64;22.32
54588;BME280;40484;50.198;19.576;2023-04-28T15:40:27;101639.80;;;22.43;22.46
54588;BME280;40484;50.198;19.576;2023-04-28T15:45:28;101635.88;;;22.46;21.99
54588;BME280;40484;50.198;19.576;2023-04-28T15:50:30;101630.25;;;22.43;21.54
54588;BME280;40484;50.198;19.576;2023-04-28T15:55:31;101628.44;;;22.35;21.79
54588;BME280;40484;50.198;19.576;2023-04-28T16:00:33;101628.22;;;22.23;22.21
54588;BME280;40484;50.198;19.576;2023-04-28T16:06:02;101616.98;;;22.35;22.39
54588;BME280;40484;50.198;19.576;2023-04-28T16:11:03;101622.41;;;22.26;22.80
54588;BME280;40484;50.198;19.576;2023-04-28T16:16:05;101619.16;;;22.15;22.89
54588;BME280;40484;50.198;19.576;2023-04-28T16:21:07;101612.45;;;21.96;23.42
54588;BME280;40484;50.198;19.576;2023-04-28T16:26:09;101616.90;;;21.57;23.80
54588;BME280;40484;50.198;19.576;2023-04-28T16:31:10;101587.29;;;21.57;24.14
54588;BME280;40484;50.198;19.576;2023-04-28T16:36:12;101593.28;;;21.56;24.32
54588;BME280;40484;50.198;19.576;2023-04-28T16:41:13;101582.84;;;21.57;24.49
54588;BME280;40484;50.198;19.576;2023-04-28T16:46:16;101583.13;;;21.61;24.49
54588;BME280;40484;50.198;19.576;2023-04-28T16:51:18;101596.25;;;21.56;24.09
54588;BME280;40484;50.198;19.576;2023-04-28T16:56:19;101590.80;;;21.41;24.34
54588;BME280;40484;50.198;19.576;2023-04-28T17:01:21;101593.58;;;21.40;24.35
54588;BME280;40484;50.198;19.576;2023-04-28T17:06:23;101598.56;;;21.22;24.19
54588;BME280;40484;50.198;19.576;2023-04-28T17:11:24;101591.36;;;21.02;24.66
54588;BME280;40484;50.198;19.576;2023-04-28T17:16:31;101587.29;;;20.83;25.05
54588;BME280;40484;50.198;19.576;2023-04-28T17:21:33;101579.70;;;20.55;25.25
54588;BME280;40484;50.198;19.576;2023-04-28T17:26:35;101574.77;;;20.42;25.42
54588;BME280;40484;50.198;19.576;2023-04-28T17:31:37;101578.61;;;20.26;25.54
54588;BME280;40484;50.198;19.576;2023-04-28T17:36:39;101572.27;;;20.11;26.16
54588;BME280;40484;50.198;19.576;2023-04-28T17:41:40;101573.16;;;19.94;26.52
54588;BME280;40484;50.198;19.576;2023-04-28T17:47:10;101574.43;;;19.86;26.12
54588;BME280;40484;50.198;19.576;2023-04-28T17:52:11;101575.92;;;19.70;26.30
54588;BME280;40484;50.198;19.576;2023-04-28T17:57:15;101576.52;;;19.53;26.52
54588;BME280;40484;50.198;19.576;2023-04-28T18:02:18;101576.95;;;19.35;26.60
54588;BME280;40484;50.198;19.576;2023-04-28T18:07:19;101578.07;;;19.33;26.60
54588;BME280;40484;50.198;19.576;2023-04-28T18:12:21;101576.48;;;19.20;26.86
54588;BME280;40484;50.198;19.576;2023-04-28T18:17:27;101585.48;;;19.13;26.98
54588;BME280;40484;50.198;19.576;2023-04-28T18:22:28;101584.16;;;19.08;27.32
54588;BME280;40484;50.198;19.576;2023-04-28T18:27:30;101586.27;;;18.97;27.29
54588;BME280;40484;50.198;19.576;2023-04-28T18:32:31;101594.62;;;18.93;27.34
54588;BME280;40484;50.198;19.576;2023-04-28T18:37:34;101587.80;;;18.86;27.69
54588;BME280;40484;50.198;19.576;2023-04-28T18:42:36;101596.16;;;18.79;27.91
54588;BME280;40484;50.198;19.576;2023-04-28T18:47:38;101600.16;;;18.67;28.03
54588;BME280;40484;50.198;19.576;2023-04-28T18:52:40;101601.88;;;18.56;27.78
54588;BME280;40484;50.198;19.576;2023-04-28T18:57:41;101605.33;;;18.43;27.49
54588;BME280;40484;50.198;19.576;2023-04-28T19:02:43;101597.96;;;18.43;27.19
54588;BME280;40484;50.198;19.576;2023-04-28T19:07:44;101596.66;;;18.44;27.01
54588;BME280;40484;50.198;19.576;2023-04-28T19:12:45;101598.31;;;18.35;26.75
54588;BME280;40484;50.198;19.576;2023-04-28T19:17:47;101595.45;;;18.41;26.57
54588;BME280;40484;50.198;19.576;2023-04-28T19:22:49;101592.06;;;18.43;26.43
54588;BME280;40484;50.198;19.576;2023-04-28T19:28:18;101598.20;;;18.52;26.10
54588;BME280;40484;50.198;19.576;2023-04-28T19:33:20;101589.94;;;18.43;26.10
54588;BME280;40484;50.198;19.576;2023-04-28T19:38:25;101591.09;;;18.50;25.68
54588;BME280;40484;50.198;19.576;2023-04-28T19:43:27;101587.91;;;18.40;25.52
54588;BME280;40484;50.198;19.576;2023-04-28T19:48:28;101582.91;;;18.47;25.54
54588;BME280;40484;50.198;19.576;2023-04-28T19:53:30;101580.22;;;18.45;25.37
54588;BME280;40484;50.198;19.576;2023-04-28T19:58:31;101586.34;;;18.46;25.35
54588;BME280;40484;50.198;19.576;2023-04-28T20:03:33;101584.80;;;18.38;25.31
54588;BME280;40484;50.198;19.576;2023-04-28T20:08:36;101577.06;;;18.14;25.44
54588;BME280;40484;50.198;19.576;2023-04-28T20:13:37;101573.09;;;18.02;25.67
54588;BME280;40484;50.198;19.576;2023-04-28T20:18:39;101571.71;;;17.97;25.91
54588;BME280;40484;50.198;19.576;2023-04-28T20:23:40;101572.45;;;17.91;26.02
54588;BME280;40484;50.198;19.576;2023-04-28T20:28:43;101565.48;;;17.93;26.16
54588;BME280;40484;50.198;19.576;2023-04-28T20:33:45;101562.91;;;17.83;26.36
54588;BME280;40484;50.198;19.576;2023-04-28T20:38:46;101554.09;;;17.68;26.93
54588;BME280;40484;50.198;19.576;2023-04-28T20:43:48;101551.34;;;17.59;27.22
54588;BME280;40484;50.198;19.576;2023-04-28T20:48:52;101550.60;;;17.40;27.51
54588;BME280;40484;50.198;19.576;2023-04-28T20:53:55;101544.16;;;17.23;28.06
54588;BME280;40484;50.198;19.576;2023-04-28T20:58:57;101541.43;;;17.11;28.24
54588;BME280;40484;50.198;19.576;2023-04-28T21:03:58;101535.32;;;16.98;28.47
54588;BME280;40484;50.198;19.576;2023-04-28T21:09:26;101540.79;;;16.67;29.32
54588;BME280;40484;50.198;19.576;2023-04-28T21:14:27;101529.72;;;16.47;29.60
54588;BME280;40484;50.198;19.576;2023-04-28T21:19:29;101528.60;;;16.36;29.99
54588;BME280;40484;50.198;19.576;2023-04-28T21:24:31;101531.42;;;16.28;30.08
54588;BME280;40484;50.198;19.576;2023-04-28T21:29:32;101531.35;;;16.16;30.07
54588;BME280;40484;50.198;19.576;2023-04-28T21:34:34;101532.78;;;15.82;30.81
54588;BME280;40484;50.198;19.576;2023-04-28T21:39:36;101538.96;;;15.72;30.86
54588;BME280;40484;50.198;19.576;2023-04-28T21:44:38;101530.76;;;15.77;31.05
54588;BME280;40484;50.198;19.576;2023-04-28T21:49:40;101538.77;;;15.71;31.29
54588;BME280;40484;50.198;19.576;2023-04-28T21:54:42;101529.80;;;15.65;31.48
54588;BME280;40484;50.198;19.576;2023-04-28T21:59:43;101537.81;;;15.57;31.83
54588;BME280;40484;50.198;19.576;2023-04-28T22:04:45;101528.49;;;15.47;32.45
54588;BME280;40484;50.198;19.576;2023-04-28T22:09:47;101531.42;;;15.47;32.57
54588;BME280;40484;50.198;19.576;2023-04-28T22:14:48;101535.92;;;15.36;32.92
54588;BME280;40484;50.198;19.576;2023-04-28T22:19:50;101526.34;;;15.28;33.13
54588;BME280;40484;50.198;19.576;2023-04-28T22:24:52;101520.74;;;15.22;33.39
54588;BME280;40484;50.198;19.576;2023-04-28T22:29:53;101519.72;;;15.19;33.42
54588;BME280;40484;50.198;19.576;2023-04-28T22:34:55;101514.05;;;15.22;33.34
54588;BME280;40484;50.198;19.576;2023-04-28T22:39:56;101522.54;;;15.07;33.55
54588;BME280;40484;50.198;19.576;2023-04-28T22:44:58;101517.40;;;14.96;33.64
54588;BME280;40484;50.198;19.576;2023-04-28T22:49:59;101516.25;;;14.81;33.92
54588;BME280;40484;50.198;19.576;2023-04-28T22:55:02;101521.72;;;14.73;34.12
54588;BME280;40484;50.198;19.576;2023-04-28T23:00:28;101509.61;;;14.71;34.26
54588;BME280;40484;50.198;19.576;2023-04-28T23:05:29;101515.15;;;14.51;34.40
54588;BME280;40484;50.198;19.576;2023-04-28T23:10:31;101516.92;;;14.24;34.61
54588;BME280;40484;50.198;19.576;2023-04-28T23:15:33;101510.95;;;14.07;34.70
54588;BME280;40484;50.198;19.576;2023-04-28T23:20:34;101508.89;;;13.95;34.84
54588;BME280;40484;50.198;19.576;2023-04-28T23:25:39;101504.53;;;13.88;35.26
54588;BME280;40484;50.198;19.576;2023-04-28T23:30:39;101497.87;;;13.78;35.40
54588;BME280;40484;50.198;19.576;2023-04-28T23:35:40;101494.57;;;13.60;35.51
54588;BME280;40484;50.198;19.576;2023-04-28T23:40:42;101486.65;;;13.53;35.67
54588;BME280;40484;50.198;19.576;2023-04-28T23:45:43;101483.70;;;13.55;35.82
54588;BME280;40484;50.198;19.576;2023-04-28T23:50:45;101480.37;;;13.49;36.07
54588;BME280;40484;50.198;19.576;2023-04-28T23:55:46;101476.63;;;13.36;36.15
